sensor_id;sensor_type;location;lat;lon;timestamp;P1;durP1;ratioP1;P2;durP2;ratioP2
12348;SDS011;5974;42.710;27.258;2024-03-07T00:01:56;15.60;;;9.87;;
12348;SDS011;5974;42.710;27.258;2024-03-07T00:04:24;16.13;;;10.60;;
12348;SDS011;5974;42.710;27.258;2024-03-07T00:06:51;14.20;;;10.03;;
12348;SDS011;5974;42.710;27.258;2024-03-07T00:09:18;14.43;;;9.83;;
12348;SDS011;5974;42.710;27.258;2024-03-07T00:11:49;15.83;;;10.23;;
12348;SDS011;5974;42.710;27.258;2024-03-07T00:14:16;11.87;;;9.07;;
12348;SDS011;5974;42.710;27.258;2024-03-07T00:16:43;12.93;;;10.33;;
12348;SDS011;5974;42.710;27.258;2024-03-07T00:19:11;15.47;;;10.23;;
12348;SDS011;5974;42.710;27.258;2024-03-07T00:21:41;14.93;;;9.53;;
12348;SDS011;5974;42.710;27.258;2024-03-07T00:24:08;11.57;;;9.20;;
12348;SDS011;5974;42.710;27.258;2024-03-07T00:26:35;16.30;;;10.57;;
12348;SDS011;5974;42.710;27.258;2024-03-07T00:29:02;17.33;;;10.57;;
12348;SDS011;5974;42.710;27.258;2024-03-07T00:31:29;13.30;;;9.53;;
12348;SDS011;5974;42.710;27.258;2024-03-07T00:33:56;15.87;;;10.07;;
12348;SDS011;5974;42.710;27.258;2024-03-07T00:36:22;14.13;;;10.37;;
12348;SDS011;5974;42.710;27.258;2024-03-07T00:38:51;14.90;;;9.87;;
12348;SDS011;5974;42.710;27.258;2024-03-07T00:41:18;15.27;;;10.67;;
12348;SDS011;5974;42.710;27.258;2024-03-07T00:43:45;12.53;;;9.67;;
12348;SDS011;5974;42.710;27.258;2024-03-07T00:46:13;15.10;;;10.77;;
12348;SDS011;5974;42.710;27.258;2024-03-07T00:48:40;16.80;;;11.43;;
12348;SDS011;5974;42.710;27.258;2024-03-07T00:51:06;13.00;;;10.63;;
12348;SDS011;5974;42.710;27.258;2024-03-07T00:53:34;14.50;;;11.13;;
12348;SDS011;5974;42.710;27.258;2024-03-07T00:56:02;15.10;;;10.73;;
12348;SDS011;5974;42.710;27.258;2024-03-07T00:58:30;15.57;;;11.17;;
12348;SDS011;5974;42.710;27.258;2024-03-07T01:00:57;14.17;;;10.70;;
12348;SDS011;5974;42.710;27.258;2024-03-07T01:03:24;17.00;;;11.27;;
12348;SDS011;5974;42.710;27.258;2024-03-07T01:05:50;13.83;;;10.77;;
12348;SDS011;5974;42.710;27.258;2024-03-07T01:08:17;17.10;;;11.43;;
12348;SDS011;5974;42.710;27.258;2024-03-07T01:10:44;16.63;;;11.40;;
12348;SDS011;5974;42.710;27.258;2024-03-07T01:13:13;15.87;;;10.90;;
12348;SDS011;5974;42.710;27.258;2024-03-07T01:15:44;18.10;;;10.57;;
12348;SDS011;5974;42.710;27.258;2024-03-07T01:18:11;12.17;;;10.17;;
12348;SDS011;5974;42.710;27.258;2024-03-07T01:20:38;15.77;;;10.93;;
12348;SDS011;5974;42.710;27.258;2024-03-07T01:23:05;18.00;;;10.13;;
12348;SDS011;5974;42.710;27.258;2024-03-07T01:25:32;15.20;;;10.50;;
12348;SDS011;5974;42.710;27.258;2024-03-07T01:27:59;11.07;;;9.87;;
12348;SDS011;5974;42.710;27.258;2024-03-07T01:30:27;18.30;;;10.67;;
12348;SDS011;5974;42.710;27.258;2024-03-07T01:32:54;15.67;;;10.27;;
12348;SDS011;5974;42.710;27.258;2024-03-07T01:35:21;13.60;;;10.13;;
12348;SDS011;5974;42.710;27.258;2024-03-07T01:37:48;16.10;;;10.73;;
12348;SDS011;5974;42.710;27.258;2024-03-07T01:40:15;14.07;;;10.47;;
12348;SDS011;5974;42.710;27.258;2024-03-07T01:42:41;16.03;;;11.00;;
12348;SDS011;5974;42.710;27.258;2024-03-07T01:45:08;12.53;;;10.80;;
12348;SDS011;5974;42.710;27.258;2024-03-07T01:47:37;16.03;;;11.43;;
12348;SDS011;5974;42.710;27.258;2024-03-07T01:50:04;16.67;;;11.83;;
12348;SDS011;5974;42.710;27.258;2024-03-07T01:52:32;18.73;;;12.10;;
12348;SDS011;5974;42.710;27.258;2024-03-07T01:55:00;14.43;;;12.23;;
12348;SDS011;5974;42.710;27.258;2024-03-07T01:57:28;20.50;;;12.20;;
12348;SDS011;5974;42.710;27.258;2024-03-07T01:59:55;14.80;;;11.97;;
12348;SDS011;5974;42.710;27.258;2024-03-07T02:02:23;18.10;;;12.10;;
12348;SDS011;5974;42.710;27.258;2024-03-07T02:04:51;17.00;;;11.90;;
12348;SDS011;5974;42.710;27.258;2024-03-07T02:07:18;15.80;;;12.33;;
12348;SDS011;5974;42.710;27.258;2024-03-07T02:09:44;17.33;;;11.97;;
12348;SDS011;5974;42.710;27.258;2024-03-07T02:12:11;20.30;;;11.90;;
12348;SDS011;5974;42.710;27.258;2024-03-07T02:14:38;17.83;;;12.07;;
12348;SDS011;5974;42.710;27.258;2024-03-07T02:17:05;14.80;;;11.10;;
12348;SDS011;5974;42.710;27.258;2024-03-07T02:19:32;16.07;;;11.17;;
12348;SDS011;5974;42.710;27.258;2024-03-07T02:22:00;16.63;;;11.30;;
12348;SDS011;5974;42.710;27.258;2024-03-07T02:24:27;15.47;;;11.27;;
12348;SDS011;5974;42.710;27.258;2024-03-07T02:26:54;18.07;;;11.47;;
12348;SDS011;5974;42.710;27.258;2024-03-07T02:29:20;17.13;;;11.13;;
12348;SDS011;5974;42.710;27.258;2024-03-07T02:31:47;15.53;;;11.00;;
12348;SDS011;5974;42.710;27.258;2024-03-07T02:34:14;16.87;;;11.50;;
12348;SDS011;5974;42.710;27.258;2024-03-07T02:36:41;14.47;;;11.47;;
12348;SDS011;5974;42.710;27.258;2024-03-07T02:39:10;16.83;;;11.77;;
12348;SDS011;5974;42.710;27.258;2024-03-07T02:41:37;19.83;;;12.03;;
12348;SDS011;5974;42.710;27.258;2024-03-07T02:44:04;19.33;;;11.87;;
12348;SDS011;5974;42.710;27.258;2024-03-07T02:46:31;18.60;;;12.23;;
12348;SDS011;5974;42.710;27.258;2024-03-07T02:48:58;16.27;;;11.83;;
12348;SDS011;5974;42.710;27.258;2024-03-07T02:51:25;19.40;;;12.07;;
12348;SDS011;5974;42.710;27.258;2024-03-07T02:53:52;16.00;;;11.40;;
12348;SDS011;5974;42.710;27.258;2024-03-07T02:56:20;13.57;;;10.90;;
12348;SDS011;5974;42.710;27.258;2024-03-07T02:58:47;15.80;;;11.43;;
12348;SDS011;5974;42.710;27.258;2024-03-07T03:01:13;17.33;;;12.60;;
12348;SDS011;5974;42.710;27.258;2024-03-07T03:03:40;19.07;;;12.20;;
12348;SDS011;5974;42.710;27.258;2024-03-07T03:06:07;19.10;;;13.03;;
12348;SDS011;5974;42.710;27.258;2024-03-07T03:08:35;19.43;;;12.67;;
12348;SDS011;5974;42.710;27.258;2024-03-07T03:11:02;18.37;;;12.83;;
12348;SDS011;5974;42.710;27.258;2024-03-07T03:13:30;18.60;;;12.30;;
12348;SDS011;5974;42.710;27.258;2024-03-07T03:15:57;20.47;;;12.73;;
12348;SDS011;5974;42.710;27.258;2024-03-07T03:18:24;21.60;;;12.17;;
12348;SDS011;5974;42.710;27.258;2024-03-07T03:20:51;17.17;;;11.67;;
12348;SDS011;5974;42.710;27.258;2024-03-07T03:23:18;19.43;;;11.90;;
12348;SDS011;5974;42.710;27.258;2024-03-07T03:25:45;21.27;;;13.63;;
12348;SDS011;5974;42.710;27.258;2024-03-07T03:28:13;17.27;;;11.80;;
12348;SDS011;5974;42.710;27.258;2024-03-07T03:30:41;18.33;;;12.07;;
12348;SDS011;5974;42.710;27.258;2024-03-07T03:33:09;14.83;;;11.43;;
12348;SDS011;5974;42.710;27.258;2024-03-07T03:35:36;17.53;;;13.10;;
12348;SDS011;5974;42.710;27.258;2024-03-07T03:38:03;20.03;;;12.60;;
12348;SDS011;5974;42.710;27.258;2024-03-07T03:40:31;18.27;;;12.23;;
12348;SDS011;5974;42.710;27.258;2024-03-07T03:42:59;16.23;;;11.60;;
12348;SDS011;5974;42.710;27.258;2024-03-07T03:45:26;20.10;;;11.37;;
12348;SDS011;5974;42.710;27.258;2024-03-07T03:47:54;18.83;;;11.90;;
12348;SDS011;5974;42.710;27.258;2024-03-07T03:50:21;19.07;;;12.43;;
12348;SDS011;5974;42.710;27.258;2024-03-07T03:52:49;19.50;;;12.60;;
12348;SDS011;5974;42.710;27.258;2024-03-07T03:55:16;17.67;;;12.40;;
12348;SDS011;5974;42.710;27.258;2024-03-07T03:57:43;15.70;;;11.63;;
12348;SDS011;5974;42.710;27.258;2024-03-07T04:00:12;16.87;;;11.83;;
12348;SDS011;5974;42.710;27.258;2024-03-07T04:02:39;18.00;;;11.33;;
12348;SDS011;5974;42.710;27.258;2024-03-07T04:05:08;16.43;;;11.67;;
12348;SDS011;5974;42.710;27.258;2024-03-07T04:07:36;18.00;;;13.00;;
12348;SDS011;5974;42.710;27.258;2024-03-07T04:10:03;19.93;;;12.83;;
12348;SDS011;5974;42.710;27.258;2024-03-07T04:12:32;15.80;;;11.93;;
12348;SDS011;5974;42.710;27.258;2024-03-07T04:15:02;15.57;;;11.63;;
12348;SDS011;5974;42.710;27.258;2024-03-07T04:17:30;18.10;;;11.57;;
12348;SDS011;5974;42.710;27.258;2024-03-07T04:19:58;18.50;;;12.23;;
12348;SDS011;5974;42.710;27.258;2024-03-07T04:22:27;19.90;;;12.97;;
12348;SDS011;5974;42.710;27.258;2024-03-07T04:24:54;18.60;;;12.10;;
12348;SDS011;5974;42.710;27.258;2024-03-07T04:27:20;22.67;;;11.77;;
12348;SDS011;5974;42.710;27.258;2024-03-07T04:29:48;16.80;;;12.00;;
12348;SDS011;5974;42.710;27.258;2024-03-07T04:32:15;16.27;;;12.43;;
12348;SDS011;5974;42.710;27.258;2024-03-07T04:34:42;18.90;;;12.73;;
12348;SDS011;5974;42.710;27.258;2024-03-07T04:37:10;18.00;;;13.17;;
12348;SDS011;5974;42.710;27.258;2024-03-07T04:39:38;15.83;;;12.27;;
12348;SDS011;5974;42.710;27.258;2024-03-07T04:42:06;21.10;;;13.07;;
12348;SDS011;5974;42.710;27.258;2024-03-07T04:44:34;19.00;;;13.23;;
12348;SDS011;5974;42.710;27.258;2024-03-07T04:47:02;16.00;;;12.10;;
12348;SDS011;5974;42.710;27.258;2024-03-07T04:49:30;18.97;;;13.20;;
12348;SDS011;5974;42.710;27.258;2024-03-07T04:51:57;19.20;;;12.83;;
12348;SDS011;5974;42.710;27.258;2024-03-07T04:54:26;15.87;;;12.40;;
12348;SDS011;5974;42.710;27.258;2024-03-07T04:56:55;19.37;;;13.40;;
12348;SDS011;5974;42.710;27.258;2024-03-07T04:59:22;22.53;;;12.80;;
12348;SDS011;5974;42.710;27.258;2024-03-07T05:01:49;18.60;;;13.67;;
12348;SDS011;5974;42.710;27.258;2024-03-07T05:04:16;18.67;;;13.73;;
12348;SDS011;5974;42.710;27.258;2024-03-07T05:06:44;99.43;;;55.33;;
12348;SDS011;5974;42.710;27.258;2024-03-07T05:09:13;118.50;;;55.17;;
12348;SDS011;5974;42.710;27.258;2024-03-07T05:11:48;166.93;;;71.17;;
12348;SDS011;5974;42.710;27.258;2024-03-07T05:14:16;178.13;;;71.77;;
12348;SDS011;5974;42.710;27.258;2024-03-07T05:16:45;57.90;;;40.00;;
12348;SDS011;5974;42.710;27.258;2024-03-07T05:19:26;62.37;;;45.30;;
12348;SDS011;5974;42.710;27.258;2024-03-07T05:21:54;35.30;;;24.33;;
12348;SDS011;5974;42.710;27.258;2024-03-07T05:24:21;21.90;;;14.97;;
12348;SDS011;5974;42.710;27.258;2024-03-07T05:26:48;27.40;;;17.00;;
12348;SDS011;5974;42.710;27.258;2024-03-07T05:29:15;22.63;;;16.60;;
12348;SDS011;5974;42.710;27.258;2024-03-07T05:31:43;19.40;;;12.83;;
12348;SDS011;5974;42.710;27.258;2024-03-07T05:34:12;16.70;;;12.67;;
12348;SDS011;5974;42.710;27.258;2024-03-07T05:36:40;18.67;;;13.10;;
12348;SDS011;5974;42.710;27.258;2024-03-07T05:39:09;20.30;;;14.87;;
12348;SDS011;5974;42.710;27.258;2024-03-07T05:41:36;31.63;;;23.73;;
12348;SDS011;5974;42.710;27.258;2024-03-07T05:44:03;24.87;;;15.23;;
12348;SDS011;5974;42.710;27.258;2024-03-07T05:46:34;25.70;;;17.33;;
12348;SDS011;5974;42.710;27.258;2024-03-07T05:49:06;24.43;;;14.53;;
12348;SDS011;5974;42.710;27.258;2024-03-07T05:51:33;15.57;;;11.93;;
12348;SDS011;5974;42.710;27.258;2024-03-07T05:53:59;17.50;;;11.93;;
12348;SDS011;5974;42.710;27.258;2024-03-07T05:56:27;15.97;;;12.23;;
12348;SDS011;5974;42.710;27.258;2024-03-07T05:58:53;15.00;;;11.27;;
12348;SDS011;5974;42.710;27.258;2024-03-07T06:01:21;18.07;;;12.70;;
12348;SDS011;5974;42.710;27.258;2024-03-07T06:03:52;17.63;;;12.73;;
12348;SDS011;5974;42.710;27.258;2024-03-07T06:06:19;18.23;;;12.37;;
12348;SDS011;5974;42.710;27.258;2024-03-07T06:08:46;19.67;;;12.63;;
12348;SDS011;5974;42.710;27.258;2024-03-07T06:11:13;17.07;;;12.70;;
12348;SDS011;5974;42.710;27.258;2024-03-07T06:13:45;18.70;;;13.10;;
12348;SDS011;5974;42.710;27.258;2024-03-07T06:16:12;17.97;;;14.57;;
12348;SDS011;5974;42.710;27.258;2024-03-07T06:18:39;17.23;;;13.43;;
12348;SDS011;5974;42.710;27.258;2024-03-07T06:21:07;29.00;;;16.80;;
12348;SDS011;5974;42.710;27.258;2024-03-07T06:23:35;38.83;;;25.47;;
12348;SDS011;5974;42.710;27.258;2024-03-07T06:26:02;58.17;;;35.80;;
12348;SDS011;5974;42.710;27.258;2024-03-07T06:28:37;52.33;;;32.97;;
12348;SDS011;5974;42.710;27.258;2024-03-07T06:31:04;65.07;;;36.63;;
12348;SDS011;5974;42.710;27.258;2024-03-07T06:33:32;44.03;;;27.67;;
12348;SDS011;5974;42.710;27.258;2024-03-07T06:35:59;42.53;;;26.37;;
12348;SDS011;5974;42.710;27.258;2024-03-07T06:38:28;40.57;;;22.60;;
12348;SDS011;5974;42.710;27.258;2024-03-07T06:40:55;30.20;;;21.27;;
12348;SDS011;5974;42.710;27.258;2024-03-07T06:43:22;37.50;;;21.73;;
12348;SDS011;5974;42.710;27.258;2024-03-07T06:45:49;35.63;;;20.20;;
12348;SDS011;5974;42.710;27.258;2024-03-07T06:48:17;29.30;;;19.03;;
12348;SDS011;5974;42.710;27.258;2024-03-07T06:50:43;32.50;;;20.47;;
12348;SDS011;5974;42.710;27.258;2024-03-07T06:53:10;29.03;;;20.70;;
12348;SDS011;5974;42.710;27.258;2024-03-07T06:55:39;31.67;;;22.03;;
12348;SDS011;5974;42.710;27.258;2024-03-07T06:58:05;30.67;;;20.00;;
12348;SDS011;5974;42.710;27.258;2024-03-07T07:00:32;38.80;;;21.70;;
12348;SDS011;5974;42.710;27.258;2024-03-07T07:03:01;32.67;;;20.50;;
12348;SDS011;5974;42.710;27.258;2024-03-07T07:05:30;34.23;;;20.13;;
12348;SDS011;5974;42.710;27.258;2024-03-07T07:07:57;26.83;;;17.63;;
12348;SDS011;5974;42.710;27.258;2024-03-07T07:10:23;29.90;;;18.93;;
12348;SDS011;5974;42.710;27.258;2024-03-07T07:12:52;30.03;;;18.97;;
12348;SDS011;5974;42.710;27.258;2024-03-07T07:15:20;24.30;;;18.17;;
12348;SDS011;5974;42.710;27.258;2024-03-07T07:17:47;30.70;;;19.43;;
12348;SDS011;5974;42.710;27.258;2024-03-07T07:20:15;27.60;;;19.57;;
12348;SDS011;5974;42.710;27.258;2024-03-07T07:22:42;25.33;;;18.17;;
12348;SDS011;5974;42.710;27.258;2024-03-07T07:25:11;45.10;;;19.20;;
12348;SDS011;5974;42.710;27.258;2024-03-07T07:27:43;23.47;;;16.83;;
12348;SDS011;5974;42.710;27.258;2024-03-07T07:30:13;23.83;;;14.80;;
12348;SDS011;5974;42.710;27.258;2024-03-07T07:32:42;34.70;;;17.27;;
12348;SDS011;5974;42.710;27.258;2024-03-07T07:35:09;22.87;;;15.27;;
12348;SDS011;5974;42.710;27.258;2024-03-07T07:37:37;19.70;;;14.53;;
12348;SDS011;5974;42.710;27.258;2024-03-07T07:40:05;19.73;;;12.97;;
12348;SDS011;5974;42.710;27.258;2024-03-07T07:42:34;15.30;;;11.93;;
12348;SDS011;5974;42.710;27.258;2024-03-07T07:45:04;19.20;;;12.70;;
12348;SDS011;5974;42.710;27.258;2024-03-07T07:47:34;17.70;;;13.03;;
12348;SDS011;5974;42.710;27.258;2024-03-07T07:50:03;17.77;;;11.70;;
12348;SDS011;5974;42.710;27.258;2024-03-07T07:52:32;19.17;;;12.80;;
12348;SDS011;5974;42.710;27.258;2024-03-07T07:55:00;21.27;;;13.20;;
12348;SDS011;5974;42.710;27.258;2024-03-07T07:57:27;23.00;;;13.73;;
12348;SDS011;5974;42.710;27.258;2024-03-07T07:59:54;19.17;;;13.00;;
12348;SDS011;5974;42.710;27.258;2024-03-07T08:02:20;18.33;;;12.10;;
12348;SDS011;5974;42.710;27.258;2024-03-07T08:04:49;15.83;;;11.00;;
12348;SDS011;5974;42.710;27.258;2024-03-07T08:07:16;25.43;;;12.33;;
12348;SDS011;5974;42.710;27.258;2024-03-07T08:09:42;14.73;;;10.27;;
12348;SDS011;5974;42.710;27.258;2024-03-07T08:12:09;18.17;;;11.50;;
12348;SDS011;5974;42.710;27.258;2024-03-07T08:14:37;13.97;;;9.80;;
12348;SDS011;5974;42.710;27.258;2024-03-07T08:17:04;18.63;;;11.20;;
12348;SDS011;5974;42.710;27.258;2024-03-07T08:19:31;14.43;;;10.93;;
12348;SDS011;5974;42.710;27.258;2024-03-07T08:21:59;15.67;;;10.70;;
12348;SDS011;5974;42.710;27.258;2024-03-07T08:24:26;15.80;;;11.30;;
12348;SDS011;5974;42.710;27.258;2024-03-07T08:26:53;15.17;;;11.30;;
12348;SDS011;5974;42.710;27.258;2024-03-07T08:29:21;17.80;;;11.27;;
12348;SDS011;5974;42.710;27.258;2024-03-07T08:31:49;14.73;;;10.53;;
12348;SDS011;5974;42.710;27.258;2024-03-07T08:34:16;16.60;;;11.47;;
12348;SDS011;5974;42.710;27.258;2024-03-07T08:36:42;13.90;;;10.80;;
12348;SDS011;5974;42.710;27.258;2024-03-07T08:39:11;18.20;;;11.37;;
12348;SDS011;5974;42.710;27.258;2024-03-07T08:41:39;15.23;;;11.10;;
12348;SDS011;5974;42.710;27.258;2024-03-07T08:44:07;14.63;;;10.70;;
12348;SDS011;5974;42.710;27.258;2024-03-07T08:46:34;16.60;;;11.27;;
12348;SDS011;5974;42.710;27.258;2024-03-07T08:49:01;14.83;;;11.70;;
12348;SDS011;5974;42.710;27.258;2024-03-07T08:51:28;16.90;;;11.80;;
12348;SDS011;5974;42.710;27.258;2024-03-07T08:53:55;16.53;;;11.00;;
12348;SDS011;5974;42.710;27.258;2024-03-07T08:56:23;15.73;;;11.50;;
12348;SDS011;5974;42.710;27.258;2024-03-07T08:58:49;16.20;;;12.13;;
12348;SDS011;5974;42.710;27.258;2024-03-07T09:01:16;16.60;;;11.97;;
12348;SDS011;5974;42.710;27.258;2024-03-07T09:03:43;17.00;;;11.80;;
12348;SDS011;5974;42.710;27.258;2024-03-07T09:06:10;17.53;;;11.23;;
12348;SDS011;5974;42.710;27.258;2024-03-07T09:08:38;15.70;;;11.53;;
12348;SDS011;5974;42.710;27.258;2024-03-07T09:11:05;14.77;;;12.30;;
12348;SDS011;5974;42.710;27.258;2024-03-07T09:13:33;14.37;;;11.30;;
12348;SDS011;5974;42.710;27.258;2024-03-07T09:16:00;15.73;;;12.20;;
12348;SDS011;5974;42.710;27.258;2024-03-07T09:18:30;18.63;;;12.07;;
12348;SDS011;5974;42.710;27.258;2024-03-07T09:20:57;13.83;;;11.47;;
12348;SDS011;5974;42.710;27.258;2024-03-07T09:23:23;16.90;;;12.33;;
12348;SDS011;5974;42.710;27.258;2024-03-07T09:25:50;16.33;;;12.20;;
12348;SDS011;5974;42.710;27.258;2024-03-07T09:28:17;19.87;;;11.43;;
12348;SDS011;5974;42.710;27.258;2024-03-07T09:30:45;18.17;;;11.47;;
12348;SDS011;5974;42.710;27.258;2024-03-07T09:33:12;16.03;;;11.47;;
12348;SDS011;5974;42.710;27.258;2024-03-07T09:35:41;12.57;;;11.13;;
12348;SDS011;5974;42.710;27.258;2024-03-07T09:38:08;16.13;;;11.53;;
12348;SDS011;5974;42.710;27.258;2024-03-07T09:40:36;16.87;;;10.60;;
12348;SDS011;5974;42.710;27.258;2024-03-07T09:43:03;16.60;;;12.57;;
12348;SDS011;5974;42.710;27.258;2024-03-07T09:45:35;14.77;;;11.30;;
12348;SDS011;5974;42.710;27.258;2024-03-07T09:48:05;17.03;;;11.27;;
12348;SDS011;5974;42.710;27.258;2024-03-07T09:50:34;14.60;;;10.27;;
12348;SDS011;5974;42.710;27.258;2024-03-07T09:53:03;18.93;;;11.13;;
12348;SDS011;5974;42.710;27.258;2024-03-07T09:55:30;17.20;;;11.43;;
12348;SDS011;5974;42.710;27.258;2024-03-07T09:57:58;16.17;;;11.03;;
12348;SDS011;5974;42.710;27.258;2024-03-07T10:00:27;15.03;;;11.23;;
12348;SDS011;5974;42.710;27.258;2024-03-07T10:02:56;19.67;;;11.27;;
12348;SDS011;5974;42.710;27.258;2024-03-07T10:05:26;15.57;;;12.07;;
12348;SDS011;5974;42.710;27.258;2024-03-07T10:07:54;19.23;;;11.83;;
12348;SDS011;5974;42.710;27.258;2024-03-07T10:10:21;15.43;;;11.50;;
12348;SDS011;5974;42.710;27.258;2024-03-07T10:12:48;13.57;;;10.63;;
12348;SDS011;5974;42.710;27.258;2024-03-07T10:15:17;13.63;;;11.00;;
12348;SDS011;5974;42.710;27.258;2024-03-07T10:17:44;15.60;;;11.30;;
12348;SDS011;5974;42.710;27.258;2024-03-07T10:20:12;15.00;;;11.33;;
12348;SDS011;5974;42.710;27.258;2024-03-07T10:22:41;22.57;;;11.40;;
12348;SDS011;5974;42.710;27.258;2024-03-07T10:25:08;15.63;;;11.40;;
12348;SDS011;5974;42.710;27.258;2024-03-07T10:27:38;15.33;;;10.50;;
12348;SDS011;5974;42.710;27.258;2024-03-07T10:30:05;14.60;;;10.87;;
12348;SDS011;5974;42.710;27.258;2024-03-07T10:32:33;14.40;;;11.47;;
12348;SDS011;5974;42.710;27.258;2024-03-07T10:35:01;16.80;;;11.90;;
12348;SDS011;5974;42.710;27.258;2024-03-07T10:37:28;13.47;;;11.20;;
12348;SDS011;5974;42.710;27.258;2024-03-07T10:39:57;14.83;;;11.00;;
12348;SDS011;5974;42.710;27.258;2024-03-07T10:42:24;21.33;;;11.83;;
12348;SDS011;5974;42.710;27.258;2024-03-07T10:44:59;17.03;;;11.00;;
12348;SDS011;5974;42.710;27.258;2024-03-07T10:47:35;16.07;;;12.17;;
12348;SDS011;5974;42.710;27.258;2024-03-07T10:50:07;17.20;;;11.80;;
12348;SDS011;5974;42.710;27.258;2024-03-07T10:52:43;14.80;;;10.90;;
12348;SDS011;5974;42.710;27.258;2024-03-07T10:55:22;14.90;;;11.07;;
12348;SDS011;5974;42.710;27.258;2024-03-07T10:58:00;12.37;;;9.87;;
12348;SDS011;5974;42.710;27.258;2024-03-07T11:00:30;19.63;;;12.80;;
12348;SDS011;5974;42.710;27.258;2024-03-07T11:03:02;17.90;;;11.23;;
12348;SDS011;5974;42.710;27.258;2024-03-07T11:05:32;16.10;;;11.67;;
12348;SDS011;5974;42.710;27.258;2024-03-07T11:08:00;15.70;;;10.93;;
12348;SDS011;5974;42.710;27.258;2024-03-07T11:10:35;16.77;;;11.40;;
12348;SDS011;5974;42.710;27.258;2024-03-07T11:13:02;15.60;;;10.97;;
12348;SDS011;5974;42.710;27.258;2024-03-07T11:15:30;17.73;;;11.80;;
12348;SDS011;5974;42.710;27.258;2024-03-07T11:17:59;17.57;;;11.87;;
12348;SDS011;5974;42.710;27.258;2024-03-07T11:20:26;16.97;;;12.93;;
12348;SDS011;5974;42.710;27.258;2024-03-07T11:23:00;17.30;;;13.73;;
12348;SDS011;5974;42.710;27.258;2024-03-07T11:25:27;17.63;;;13.00;;
12348;SDS011;5974;42.710;27.258;2024-03-07T11:27:57;15.47;;;12.00;;
12348;SDS011;5974;42.710;27.258;2024-03-07T11:30:27;16.57;;;12.33;;
12348;SDS011;5974;42.710;27.258;2024-03-07T11:32:54;18.20;;;13.77;;
12348;SDS011;5974;42.710;27.258;2024-03-07T11:35:30;18.20;;;12.73;;
12348;SDS011;5974;42.710;27.258;2024-03-07T11:38:00;17.00;;;12.80;;
12348;SDS011;5974;42.710;27.258;2024-03-07T11:40:44;15.30;;;11.83;;
12348;SDS011;5974;42.710;27.258;2024-03-07T11:43:15;17.50;;;11.83;;
12348;SDS011;5974;42.710;27.258;2024-03-07T11:45:42;19.40;;;13.37;;
12348;SDS011;5974;42.710;27.258;2024-03-07T11:48:16;19.00;;;14.63;;
12348;SDS011;5974;42.710;27.258;2024-03-07T11:50:45;20.53;;;12.00;;
12348;SDS011;5974;42.710;27.258;2024-03-07T11:53:12;17.77;;;12.30;;
12348;SDS011;5974;42.710;27.258;2024-03-07T11:55:39;15.50;;;13.47;;
12348;SDS011;5974;42.710;27.258;2024-03-07T11:58:11;14.70;;;12.10;;
12348;SDS011;5974;42.710;27.258;2024-03-07T12:00:40;16.23;;;12.63;;
12348;SDS011;5974;42.710;27.258;2024-03-07T12:03:10;16.47;;;12.53;;
12348;SDS011;5974;42.710;27.258;2024-03-07T12:05:40;16.00;;;13.27;;
12348;SDS011;5974;42.710;27.258;2024-03-07T12:08:08;17.80;;;12.53;;
12348;SDS011;5974;42.710;27.258;2024-03-07T12:10:36;15.83;;;11.63;;
12348;SDS011;5974;42.710;27.258;2024-03-07T12:13:04;12.73;;;9.20;;
12348;SDS011;5974;42.710;27.258;2024-03-07T12:15:32;12.57;;;9.63;;
12348;SDS011;5974;42.710;27.258;2024-03-07T12:18:01;18.97;;;10.30;;
12348;SDS011;5974;42.710;27.258;2024-03-07T12:20:35;14.00;;;10.57;;
12348;SDS011;5974;42.710;27.258;2024-03-07T12:23:03;16.77;;;9.37;;
12348;SDS011;5974;42.710;27.258;2024-03-07T12:25:33;16.53;;;10.90;;
12348;SDS011;5974;42.710;27.258;2024-03-07T12:28:00;16.43;;;10.90;;
12348;SDS011;5974;42.710;27.258;2024-03-07T12:30:30;16.17;;;11.47;;
12348;SDS011;5974;42.710;27.258;2024-03-07T12:33:02;13.40;;;10.17;;
12348;SDS011;5974;42.710;27.258;2024-03-07T12:35:32;15.80;;;11.10;;
12348;SDS011;5974;42.710;27.258;2024-03-07T12:37:59;14.80;;;10.87;;
12348;SDS011;5974;42.710;27.258;2024-03-07T12:40:28;13.63;;;9.77;;
12348;SDS011;5974;42.710;27.258;2024-03-07T12:42:59;19.70;;;10.80;;
12348;SDS011;5974;42.710;27.258;2024-03-07T12:45:27;16.70;;;10.73;;
12348;SDS011;5974;42.710;27.258;2024-03-07T12:47:54;16.90;;;10.13;;
12348;SDS011;5974;42.710;27.258;2024-03-07T12:50:24;13.97;;;10.70;;
12348;SDS011;5974;42.710;27.258;2024-03-07T12:52:51;17.13;;;11.10;;
12348;SDS011;5974;42.710;27.258;2024-03-07T12:55:18;15.13;;;10.07;;
12348;SDS011;5974;42.710;27.258;2024-03-07T12:57:46;15.33;;;10.80;;
12348;SDS011;5974;42.710;27.258;2024-03-07T13:00:15;15.77;;;10.27;;
12348;SDS011;5974;42.710;27.258;2024-03-07T13:02:46;12.73;;;10.00;;
12348;SDS011;5974;42.710;27.258;2024-03-07T13:05:13;13.03;;;8.80;;
12348;SDS011;5974;42.710;27.258;2024-03-07T13:07:46;20.20;;;16.53;;
12348;SDS011;5974;42.710;27.258;2024-03-07T13:10:13;15.60;;;11.23;;
12348;SDS011;5974;42.710;27.258;2024-03-07T13:12:41;13.83;;;9.77;;
12348;SDS011;5974;42.710;27.258;2024-03-07T13:15:10;17.83;;;10.57;;
12348;SDS011;5974;42.710;27.258;2024-03-07T13:17:37;14.40;;;10.73;;
12348;SDS011;5974;42.710;27.258;2024-03-07T13:20:05;14.83;;;9.77;;
12348;SDS011;5974;42.710;27.258;2024-03-07T13:22:37;16.93;;;9.23;;
12348;SDS011;5974;42.710;27.258;2024-03-07T13:25:08;9.80;;;8.00;;
12348;SDS011;5974;42.710;27.258;2024-03-07T13:27:43;11.63;;;8.37;;
12348;SDS011;5974;42.710;27.258;2024-03-07T13:30:16;12.43;;;8.73;;
12348;SDS011;5974;42.710;27.258;2024-03-07T13:32:51;12.10;;;8.53;;
12348;SDS011;5974;42.710;27.258;2024-03-07T13:35:19;14.80;;;9.37;;
12348;SDS011;5974;42.710;27.258;2024-03-07T13:37:46;15.27;;;9.03;;
12348;SDS011;5974;42.710;27.258;2024-03-07T13:40:15;11.73;;;9.17;;
12348;SDS011;5974;42.710;27.258;2024-03-07T13:42:49;12.60;;;8.53;;
12348;SDS011;5974;42.710;27.258;2024-03-07T13:45:17;15.90;;;9.40;;
12348;SDS011;5974;42.710;27.258;2024-03-07T13:47:45;19.13;;;10.90;;
12348;SDS011;5974;42.710;27.258;2024-03-07T13:50:13;14.50;;;9.47;;
12348;SDS011;5974;42.710;27.258;2024-03-07T13:52:40;17.40;;;10.00;;
12348;SDS011;5974;42.710;27.258;2024-03-07T13:55:20;12.67;;;9.57;;
12348;SDS011;5974;42.710;27.258;2024-03-07T13:57:49;14.87;;;10.20;;
12348;SDS011;5974;42.710;27.258;2024-03-07T14:00:26;15.60;;;10.07;;
12348;SDS011;5974;42.710;27.258;2024-03-07T14:03:08;13.00;;;9.27;;
12348;SDS011;5974;42.710;27.258;2024-03-07T14:05:57;13.03;;;9.87;;
12348;SDS011;5974;42.710;27.258;2024-03-07T14:08:44;15.03;;;10.33;;
12348;SDS011;5974;42.710;27.258;2024-03-07T14:14:28;16.57;;;10.90;;
12348;SDS011;5974;42.710;27.258;2024-03-07T14:17:22;16.60;;;10.07;;
12348;SDS011;5974;42.710;27.258;2024-03-07T14:23:19;15.80;;;10.43;;
12348;SDS011;5974;42.710;27.258;2024-03-07T14:26:12;14.77;;;10.57;;
12348;SDS011;5974;42.710;27.258;2024-03-07T14:29:15;21.13;;;11.23;;
12348;SDS011;5974;42.710;27.258;2024-03-07T14:31:49;15.73;;;11.43;;
12348;SDS011;5974;42.710;27.258;2024-03-07T14:34:19;21.07;;;14.27;;
12348;SDS011;5974;42.710;27.258;2024-03-07T14:36:56;20.20;;;12.53;;
12348;SDS011;5974;42.710;27.258;2024-03-07T14:39:28;18.23;;;12.60;;